createdAt,value
2023-02-20T00:01:48.644Z,5.60
2023-02-20T00:04:16.889Z,4.00
2023-02-20T00:06:46.740Z,7.10
2023-02-20T00:09:15.189Z,4.00
2023-02-20T00:11:51.597Z,3.40
2023-02-20T00:14:23.488Z,6.10
2023-02-20T00:16:52.056Z,6.70
2023-02-20T00:19:26.225Z,7.70
2023-02-20T00:21:55.396Z,3.60
2023-02-20T00:24:26.366Z,5.10
2023-02-20T00:26:54.314Z,3.70
2023-02-20T00:29:25.532Z,5.00
2023-02-20T00:31:57.751Z,4.10
2023-02-20T00:34:27.761Z,3.50
2023-02-20T00:37:00.580Z,6.30
2023-02-20T00:39:29.333Z,2.90
2023-02-20T00:41:59.712Z,4.10
2023-02-20T00:44:27.813Z,3.60
2023-02-20T00:46:56.294Z,5.40
2023-02-20T00:49:24.396Z,1.70
2023-02-20T00:51:53.730Z,3.40
2023-02-20T00:54:21.884Z,3.20
2023-02-20T00:56:50.141Z,2.90
2023-02-20T00:59:18.669Z,2.40
2023-02-20T01:02:06.546Z,4.60
2023-02-20T01:04:38.362Z,2.30
2023-02-20T01:07:06.323Z,2.20
2023-02-20T01:09:34.655Z,2.80
2023-02-20T01:12:02.900Z,3.70
2023-02-20T01:14:31.366Z,2.70
2023-02-20T01:17:09.854Z,4.70
2023-02-20T01:19:38.507Z,3.10
2023-02-20T01:22:09.150Z,2.40
2023-02-20T01:24:37.761Z,3.20
2023-02-20T01:27:06.057Z,3.30
2023-02-20T01:29:34.119Z,2.50
2023-02-20T01:32:02.779Z,2.40
2023-02-20T01:34:36.225Z,3.40
2023-02-20T01:37:04.284Z,3.60
2023-02-20T01:39:33.720Z,2.40
2023-02-20T01:42:04.167Z,5.40
2023-02-20T01:44:34.263Z,5.40
2023-02-20T01:47:11.284Z,4.60
2023-02-20T01:49:41.840Z,4.10
2023-02-20T01:52:14.148Z,2.50
2023-02-20T01:54:44.065Z,3.60
2023-02-20T01:57:17.025Z,3.00
2023-02-20T01:59:45.443Z,2.90
2023-02-20T02:02:15.572Z,2.80
2023-02-20T02:04:44.153Z,3.20
2023-02-20T02:07:13.164Z,2.40
2023-02-20T02:09:50.031Z,5.40
2023-02-20T02:12:18.423Z,3.50
2023-02-20T02:14:47.299Z,3.90
2023-02-20T02:18:07.865Z,3.50
2023-02-20T02:20:59.313Z,3.20
2023-02-20T02:23:31.478Z,3.30
2023-02-20T02:26:39.094Z,2.40
2023-02-20T02:29:31.771Z,5.20
2023-02-20T02:32:07.606Z,5.90
2023-02-20T02:34:55.212Z,2.50
2023-02-20T02:37:33.514Z,2.20
2023-02-20T02:40:30.185Z,8.50
2023-02-20T02:43:04.271Z,5.90
2023-02-20T02:45:55.265Z,4.80
2023-02-20T02:48:40.289Z,3.80
2023-02-20T02:51:14.164Z,3.40
2023-02-20T02:53:42.169Z,3.50
2023-02-20T02:56:22.961Z,3.00
2023-02-20T02:58:51.554Z,2.90
2023-02-20T03:01:20.820Z,4.10
2023-02-20T03:03:51.433Z,5.20
2023-02-20T03:06:29.247Z,2.70
2023-02-20T03:09:00.866Z,9.10
2023-02-20T03:14:25.785Z,3.60
2023-02-20T03:17:02.258Z,3.90
2023-02-20T03:19:46.458Z,3.50
2023-02-20T03:22:17.012Z,7.10
2023-02-20T03:24:55.647Z,3.80
2023-02-20T03:27:39.146Z,3.90
2023-02-20T03:30:16.185Z,6.70
2023-02-20T03:33:04.389Z,2.90
2023-02-20T03:35:51.996Z,4.00
2023-02-20T03:38:40.171Z,3.40
2023-02-20T03:41:27.870Z,2.20
2023-02-20T03:43:56.112Z,2.40
2023-02-20T03:46:24.441Z,4.30
2023-02-20T03:49:02.557Z,3.70
2023-02-20T03:51:31.632Z,3.10
2023-02-20T03:56:45.462Z,3.80
2023-02-20T03:59:23.874Z,8.20
2023-02-20T04:01:54.588Z,5.10
2023-02-20T04:04:26.009Z,7.40
2023-02-20T04:06:54.103Z,4.10
2023-02-20T04:09:28.497Z,3.80
2023-02-20T04:12:04.208Z,8.50
2023-02-20T04:14:33.190Z,5.00
2023-02-20T04:17:04.118Z,3.80
2023-02-20T04:19:37.424Z,8.10
2023-02-20T04:22:07.688Z,2.30
2023-02-20T04:24:57.940Z,3.30
2023-02-20T04:27:27.432Z,3.30
2023-02-20T04:29:57.128Z,3.20
2023-02-20T04:32:25.568Z,5.90
2023-02-20T04:34:54.010Z,6.90
2023-02-20T04:37:22.820Z,10.00
2023-02-20T04:39:54.153Z,2.60
2023-02-20T04:42:22.650Z,3.50
2023-02-20T04:44:51.146Z,4.00
2023-02-20T04:47:19.488Z,2.50
2023-02-20T04:49:47.690Z,4.10
2023-02-20T04:52:19.116Z,2.80
2023-02-20T04:54:49.662Z,4.60
2023-02-20T04:57:19.002Z,3.00
2023-02-20T04:59:48.326Z,3.90
2023-02-20T05:02:16.416Z,6.00
2023-02-20T05:04:44.919Z,6.00
2023-02-20T05:07:17.270Z,2.30
2023-02-20T05:09:45.378Z,4.50
2023-02-20T05:12:13.949Z,2.70
2023-02-20T05:14:41.946Z,2.90
2023-02-20T05:17:09.974Z,4.20
2023-02-20T05:19:38.314Z,2.10
2023-02-20T05:22:22.815Z,5.40
2023-02-20T05:24:51.472Z,3.40
2023-02-20T05:27:20.623Z,9.10
2023-02-20T05:29:57.176Z,8.10
2023-02-20T05:32:27.124Z,5.20
2023-02-20T05:34:55.608Z,4.20
2023-02-20T05:37:24.812Z,4.10
2023-02-20T05:39:52.895Z,2.60
2023-02-20T05:42:22.978Z,5.00
2023-02-20T05:44:52.042Z,2.80
2023-02-20T05:47:20.623Z,6.70
2023-02-20T05:49:50.353Z,4.10
2023-02-20T05:52:18.702Z,4.70
2023-02-20T05:54:46.907Z,4.60
2023-02-20T05:57:15.219Z,5.50
2023-02-20T05:59:44.378Z,4.80
2023-02-20T06:02:12.359Z,2.70
2023-02-20T06:04:40.837Z,4.10
2023-02-20T06:07:10.583Z,5.10
2023-02-20T06:09:43.328Z,3.20
2023-02-20T06:12:13.090Z,3.50
2023-02-20T06:14:41.981Z,2.90
2023-02-20T06:17:11.549Z,2.60
2023-02-20T06:19:40.522Z,4.30
2023-02-20T06:22:08.747Z,2.30
2023-02-20T06:24:37.512Z,3.90
2023-02-20T06:27:08.680Z,2.50
2023-02-20T06:29:37.400Z,7.20
2023-02-20T06:32:05.724Z,2.70
2023-02-20T06:34:38.691Z,4.40
2023-02-20T06:37:07.319Z,3.60
2023-02-20T06:39:35.397Z,3.90
2023-02-20T06:42:03.878Z,3.90
2023-02-20T06:44:33.335Z,6.70
2023-02-20T06:47:02.103Z,4.80
2023-02-20T06:49:30.084Z,6.80
2023-02-20T06:51:58.076Z,3.00
2023-02-20T06:54:26.567Z,5.60
2023-02-20T06:56:54.659Z,3.10
2023-02-20T06:59:23.265Z,3.90
2023-02-20T07:01:51.869Z,4.60
2023-02-20T07:04:22.025Z,5.20
2023-02-20T07:06:50.316Z,6.80
2023-02-20T07:09:20.324Z,5.30
2023-02-20T07:11:50.956Z,3.90
2023-02-20T07:14:18.991Z,3.70
2023-02-20T07:16:47.393Z,5.30
2023-02-20T07:19:22.715Z,5.70
2023-02-20T07:21:51.131Z,7.20
2023-02-20T07:24:19.739Z,5.10
2023-02-20T07:26:49.077Z,4.10
2023-02-20T07:29:17.091Z,5.50
2023-02-20T07:31:45.135Z,5.40
2023-02-20T07:34:13.430Z,6.80
2023-02-20T07:36:42.700Z,6.40
2023-02-20T07:39:12.801Z,6.00
2023-02-20T07:41:42.106Z,7.60
2023-02-20T07:44:31.030Z,6.20
2023-02-20T07:46:59.092Z,7.20
2023-02-20T07:49:27.485Z,3.20
2023-02-20T07:51:58.074Z,2.60
2023-02-20T07:54:27.409Z,2.70
2023-02-20T07:56:55.626Z,5.00
2023-02-20T07:59:24.060Z,2.90
2023-02-20T08:01:52.049Z,3.50
2023-02-20T08:04:20.243Z,3.40
2023-02-20T08:06:48.720Z,6.20
2023-02-20T08:09:17.522Z,2.60
2023-02-20T08:11:46.099Z,2.80
2023-02-20T08:14:14.848Z,3.00
2023-02-20T08:16:43.174Z,2.80
2023-02-20T08:19:11.589Z,4.70
2023-02-20T08:21:41.140Z,3.30
2023-02-20T08:24:09.724Z,2.90
2023-02-20T08:26:45.362Z,6.00
2023-02-20T08:29:15.261Z,3.00
2023-02-20T08:31:43.923Z,2.60
2023-02-20T08:34:12.349Z,6.00
2023-02-20T08:36:41.000Z,2.30
2023-02-20T08:39:09.785Z,2.50
2023-02-20T08:41:45.065Z,3.90
2023-02-20T08:44:13.689Z,3.90
2023-02-20T08:46:48.996Z,3.80
2023-02-20T08:49:20.187Z,4.20
2023-02-20T08:51:52.763Z,4.80
2023-02-20T08:54:20.790Z,2.50
2023-02-20T08:56:48.838Z,5.20
2023-02-20T08:59:19.490Z,3.30
2023-02-20T09:01:47.870Z,3.70
2023-02-20T09:04:17.271Z,5.00
2023-02-20T09:06:45.454Z,5.30
2023-02-20T09:09:13.940Z,3.20
2023-02-20T09:11:42.287Z,5.70
2023-02-20T09:14:10.905Z,2.90
2023-02-20T09:16:42.258Z,6.30
2023-02-20T09:19:10.780Z,4.80
2023-02-20T09:21:38.748Z,2.80
2023-02-20T09:24:07.789Z,3.70
2023-02-20T09:26:35.905Z,4.50
2023-02-20T09:29:03.956Z,3.10
2023-02-20T09:31:32.102Z,8.60
2023-02-20T09:34:01.109Z,3.20
2023-02-20T09:36:29.920Z,2.60
2023-02-20T09:39:00.610Z,2.00
2023-02-20T09:41:41.339Z,3.40
2023-02-20T09:44:23.289Z,3.10
2023-02-20T09:46:51.674Z,3.20
2023-02-20T09:49:27.478Z,5.60
2023-02-20T09:52:00.151Z,5.00
2023-02-20T09:54:45.289Z,5.10
2023-02-20T09:57:16.779Z,5.30
2023-02-20T09:59:50.484Z,4.40
2023-02-20T10:02:22.763Z,2.70
2023-02-20T10:05:01.269Z,4.00
2023-02-20T10:07:37.093Z,3.20
2023-02-20T10:10:27.893Z,2.70
2023-02-20T10:13:09.585Z,3.40
2023-02-20T10:16:05.307Z,4.30
2023-02-20T10:18:34.158Z,4.00
2023-02-20T10:21:22.538Z,3.90
2023-02-20T10:24:05.084Z,5.00
2023-02-20T10:26:40.099Z,4.30
2023-02-20T10:29:18.682Z,2.70
2023-02-20T10:31:54.636Z,3.00
2023-02-20T10:34:35.474Z,5.10
2023-02-20T10:37:23.094Z,3.50
2023-02-20T10:39:56.128Z,4.10
2023-02-20T10:42:48.825Z,2.50
2023-02-20T10:45:28.263Z,3.30
2023-02-20T10:48:05.243Z,5.90
2023-02-20T10:50:35.479Z,3.50
2023-02-20T10:53:20.833Z,2.70
2023-02-20T10:56:22.855Z,5.00
2023-02-20T10:59:17.711Z,3.90
2023-02-20T11:01:49.560Z,6.90
2023-02-20T11:04:21.313Z,2.90
2023-02-20T11:07:13.984Z,5.30
2023-02-20T11:09:42.516Z,2.40
2023-02-20T11:12:46.580Z,3.70
2023-02-20T11:15:19.866Z,3.20
2023-02-20T11:17:53.432Z,4.30
2023-02-20T11:20:46.632Z,6.70
2023-02-20T11:23:33.205Z,5.70
2023-02-20T11:26:15.852Z,3.10
2023-02-20T11:28:44.033Z,6.40
2023-02-20T11:31:13.288Z,5.40
2023-02-20T11:33:47.332Z,4.80
2023-02-20T11:36:20.533Z,3.10
2023-02-20T11:38:49.219Z,5.60
2023-02-20T11:41:25.404Z,4.00
2023-02-20T11:44:18.550Z,5.10
2023-02-20T11:46:47.524Z,4.80
2023-02-20T11:49:29.126Z,4.90
2023-02-20T11:52:20.240Z,4.40
2023-02-20T11:54:57.106Z,4.80
2023-02-20T11:57:27.453Z,5.50
2023-02-20T12:00:20.222Z,2.70
2023-02-20T12:02:51.902Z,6.70
2023-02-20T12:05:21.181Z,3.60
2023-02-20T12:07:52.517Z,3.40
2023-02-20T12:10:39.762Z,3.40
2023-02-20T12:13:12.842Z,2.50
2023-02-20T12:15:41.000Z,3.20
2023-02-20T12:18:37.589Z,4.00
2023-02-20T12:21:10.864Z,4.20
2023-02-20T12:23:45.854Z,6.70
2023-02-20T12:26:56.722Z,3.80
2023-02-20T12:29:43.195Z,8.70
2023-02-20T12:32:15.274Z,3.50
2023-02-20T12:34:53.591Z,3.90
2023-02-20T12:37:27.621Z,4.50
2023-02-20T12:40:07.708Z,5.70
2023-02-20T12:42:36.270Z,5.40
2023-02-20T12:45:36.024Z,5.80
2023-02-20T12:48:16.805Z,4.10
2023-02-20T12:51:12.214Z,3.00
2023-02-20T12:53:51.873Z,3.10
2023-02-20T12:56:49.978Z,3.90
2023-02-20T12:59:21.177Z,4.00
2023-02-20T13:01:49.644Z,6.90
2023-02-20T13:04:25.747Z,6.20
2023-02-20T13:07:06.908Z,3.60
2023-02-20T13:09:52.991Z,4.40
2023-02-20T13:12:22.471Z,2.90
2023-02-20T13:15:15.698Z,2.60
2023-02-20T13:18:03.346Z,2.60
2023-02-20T13:20:35.379Z,3.50
2023-02-20T13:23:16.645Z,3.50
2023-02-20T13:25:45.635Z,4.50
2023-02-20T13:28:28.544Z,4.00
2023-02-20T13:31:24.093Z,5.30
2023-02-20T13:34:07.677Z,4.20
2023-02-20T13:36:35.781Z,4.80
2023-02-20T13:39:21.177Z,5.20
2023-02-20T13:41:55.512Z,5.60
2023-02-20T13:44:30.001Z,2.70
2023-02-20T13:47:27.426Z,6.50
2023-02-20T13:49:59.385Z,4.40
2023-02-20T13:52:40.086Z,4.60
2023-02-20T13:55:10.829Z,4.80
2023-02-20T13:57:53.584Z,4.10
2023-02-20T14:00:24.208Z,5.90
2023-02-20T14:02:55.235Z,7.50
2023-02-20T14:05:29.335Z,3.80
2023-02-20T14:07:58.308Z,3.90
2023-02-20T14:10:30.914Z,5.70
2023-02-20T14:13:09.329Z,3.50
2023-02-20T14:15:53.028Z,3.20
2023-02-20T14:18:40.121Z,5.90
2023-02-20T14:21:19.255Z,3.60
2023-02-20T14:23:48.485Z,4.10
2023-02-20T14:26:30.549Z,4.60
2023-02-20T14:28:59.637Z,2.70
2023-02-20T14:31:36.328Z,5.00
2023-02-20T14:34:15.064Z,3.90
2023-02-20T14:37:03.812Z,4.30
2023-02-20T14:39:50.006Z,4.20
2023-02-20T14:42:24.478Z,5.60
2023-02-20T14:45:17.212Z,11.90
2023-02-20T14:47:58.963Z,6.90
2023-02-20T14:50:29.577Z,9.80
2023-02-20T14:53:17.638Z,5.30
2023-02-20T14:55:46.141Z,4.00
2023-02-20T14:58:15.456Z,3.90
2023-02-20T15:00:44.480Z,6.90
2023-02-20T15:03:30.541Z,6.60
2023-02-20T15:06:03.410Z,4.70
2023-02-20T15:08:33.830Z,5.20
2023-02-20T15:11:10.678Z,4.30
2023-02-20T15:13:45.461Z,4.30
2023-02-20T15:16:24.067Z,3.60
2023-02-20T15:18:52.647Z,4.60
2023-02-20T15:21:32.248Z,5.70
2023-02-20T15:24:41.989Z,5.10
2023-02-20T15:27:15.189Z,4.60
2023-02-20T15:32:23.590Z,7.20
2023-02-20T15:34:54.352Z,5.70
2023-02-20T15:37:38.591Z,7.40
2023-02-20T15:40:21.281Z,5.70
2023-02-20T15:42:56.696Z,6.90
2023-02-20T15:45:26.916Z,9.10
2023-02-20T15:47:56.102Z,6.50
2023-02-20T15:50:26.921Z,7.70
2023-02-20T15:52:55.792Z,5.80
2023-02-20T15:55:24.026Z,6.90
2023-02-20T15:57:57.633Z,9.50
2023-02-20T16:00:28.528Z,6.60
2023-02-20T16:02:57.317Z,7.70
2023-02-20T16:05:25.340Z,8.10
2023-02-20T16:07:54.592Z,6.90
2023-02-20T16:10:24.858Z,9.40
2023-02-20T16:12:55.312Z,11.90
2023-02-20T16:15:25.543Z,8.70
2023-02-20T16:17:54.044Z,8.00
2023-02-20T16:20:27.746Z,7.10
2023-02-20T16:22:58.923Z,8.60
2023-02-20T16:25:27.380Z,11.90
2023-02-20T16:27:56.820Z,8.80
2023-02-20T16:30:34.231Z,9.10
2023-02-20T16:33:23.329Z,9.60
2023-02-20T16:35:55.122Z,13.90
2023-02-20T16:38:26.816Z,10.30
2023-02-20T16:40:55.651Z,9.40
2023-02-20T16:43:24.035Z,8.60
2023-02-20T16:45:52.345Z,13.00
2023-02-20T16:48:21.486Z,9.10
2023-02-20T16:50:51.433Z,12.60
2023-02-20T16:53:20.150Z,10.80
2023-02-20T16:55:49.432Z,11.80
2023-02-20T16:58:20.588Z,13.40
2023-02-20T17:00:57.412Z,9.30
2023-02-20T17:03:27.900Z,11.30
2023-02-20T17:06:00.118Z,8.90
2023-02-20T17:08:29.292Z,9.90
2023-02-20T17:10:58.490Z,9.60
2023-02-20T17:13:29.064Z,10.60
2023-02-20T17:15:57.225Z,7.10
2023-02-20T17:18:25.918Z,9.20
2023-02-20T17:20:54.631Z,5.80
2023-02-20T17:23:23.359Z,5.70
2023-02-20T17:25:51.747Z,8.40
2023-02-20T17:28:20.528Z,10.30
2023-02-20T17:30:54.540Z,6.20
2023-02-20T17:33:25.914Z,9.60
2023-02-20T17:35:55.725Z,9.20
2023-02-20T17:38:24.509Z,15.70
2023-02-20T17:40:53.272Z,9.10
2023-02-20T17:43:21.557Z,6.70
2023-02-20T17:45:49.805Z,8.10
2023-02-20T17:48:17.893Z,6.30
2023-02-20T17:50:45.882Z,8.70
2023-02-20T17:53:15.118Z,9.90
2023-02-20T17:55:43.588Z,6.60
2023-02-20T17:58:12.148Z,5.90
2023-02-20T18:00:41.516Z,8.60
2023-02-20T18:03:09.958Z,8.00
2023-02-20T18:05:38.483Z,6.20
2023-02-20T18:08:06.664Z,6.90
2023-02-20T18:10:34.944Z,8.20
2023-02-20T18:13:03.368Z,7.40
2023-02-20T18:15:33.745Z,13.30
2023-02-20T18:18:07.184Z,10.10
2023-02-20T18:20:36.501Z,6.80
2023-02-20T18:23:05.325Z,7.10
2023-02-20T18:25:40.548Z,10.30
2023-02-20T18:28:10.075Z,13.70
2023-02-20T18:30:38.712Z,9.90
2023-02-20T18:33:07.114Z,9.50
2023-02-20T18:35:36.973Z,8.70
2023-02-20T18:38:05.284Z,9.50
2023-02-20T18:40:33.617Z,10.50
2023-02-20T18:43:02.092Z,7.40
2023-02-20T18:45:30.177Z,9.50
2023-02-20T18:47:58.508Z,8.30
2023-02-20T18:50:26.963Z,8.80
2023-02-20T18:52:59.795Z,11.00
2023-02-20T18:55:28.684Z,11.80
2023-02-20T18:57:57.722Z,7.80
2023-02-20T19:00:28.758Z,8.10
2023-02-20T19:03:01.029Z,10.60
2023-02-20T19:05:29.384Z,9.70
2023-02-20T19:07:57.384Z,13.00
2023-02-20T19:10:26.491Z,11.50
2023-02-20T19:12:54.868Z,8.70
2023-02-20T19:15:27.718Z,7.60
2023-02-20T19:17:56.153Z,8.70
2023-02-20T19:20:28.743Z,9.90
2023-02-20T19:22:59.113Z,10.60
2023-02-20T19:25:27.408Z,8.50
2023-02-20T19:27:55.444Z,7.00
2023-02-20T19:30:23.646Z,10.90
2023-02-20T19:32:52.259Z,6.90
2023-02-20T19:35:20.847Z,6.90
2023-02-20T19:37:51.836Z,7.00
2023-02-20T19:40:20.027Z,8.60
2023-02-20T19:42:50.013Z,12.50
2023-02-20T19:45:18.108Z,9.60
2023-02-20T19:47:46.923Z,10.20
2023-02-20T19:50:15.619Z,9.50
2023-02-20T19:52:44.634Z,11.80
2023-02-20T19:55:20.255Z,6.40
2023-02-20T19:57:48.543Z,7.20
2023-02-20T20:00:18.307Z,7.00
2023-02-20T20:02:48.546Z,8.10
2023-02-20T20:05:16.935Z,8.10
2023-02-20T20:07:45.344Z,6.60
2023-02-20T20:10:19.329Z,7.20
2023-02-20T20:12:49.127Z,9.40
2023-02-20T20:15:22.717Z,8.40
2023-02-20T20:17:59.575Z,10.40
2023-02-20T20:20:28.680Z,7.10
2023-02-20T20:22:58.146Z,6.50
2023-02-20T20:25:26.368Z,5.60
2023-02-20T20:27:54.818Z,7.60
2023-02-20T20:30:28.454Z,5.90
2023-02-20T20:32:58.621Z,5.00
2023-02-20T20:35:27.937Z,5.10
2023-02-20T20:37:56.665Z,7.00
2023-02-20T20:40:26.309Z,6.50
2023-02-20T20:42:55.175Z,6.60
2023-02-20T20:45:23.871Z,5.60
2023-02-20T20:47:52.108Z,10.80
2023-02-20T20:50:22.540Z,7.00
2023-02-20T20:52:51.391Z,4.80
2023-02-20T20:55:19.725Z,4.30
2023-02-20T20:57:51.634Z,4.40
2023-02-20T21:00:24.628Z,5.20
2023-02-20T21:02:54.082Z,6.20
2023-02-20T21:05:25.085Z,5.90
2023-02-20T21:07:55.751Z,4.70
2023-02-20T21:10:23.834Z,5.10
2023-02-20T21:12:52.711Z,6.10
2023-02-20T21:15:23.329Z,3.80
2023-02-20T21:17:51.872Z,5.80
2023-02-20T21:20:22.966Z,5.90
2023-02-20T21:22:51.524Z,8.50
2023-02-20T21:25:21.686Z,5.00
2023-02-20T21:27:50.535Z,3.10
2023-02-20T21:30:19.324Z,5.90
2023-02-20T21:32:48.498Z,2.90
2023-02-20T21:35:17.927Z,3.90
2023-02-20T21:37:47.126Z,3.30
2023-02-20T21:40:17.026Z,3.50
2023-02-20T21:43:04.537Z,3.60
2023-02-20T21:45:32.980Z,3.50
2023-02-20T21:48:01.289Z,3.70
2023-02-20T21:50:29.839Z,3.50
2023-02-20T21:52:58.998Z,3.70
2023-02-20T21:55:27.427Z,5.50
2023-02-20T21:57:55.502Z,3.80
2023-02-20T22:00:23.458Z,4.40
2023-02-20T22:02:51.499Z,4.30
2023-02-20T22:05:19.792Z,4.00
2023-02-20T22:08:06.655Z,3.80
2023-02-20T22:10:53.462Z,4.40
2023-02-20T22:13:40.339Z,5.10
2023-02-20T22:16:28.344Z,4.60
2023-02-20T22:19:15.765Z,3.70
2023-02-20T22:22:02.983Z,3.90
2023-02-20T22:24:53.316Z,5.50
2023-02-20T22:27:40.346Z,5.20
2023-02-20T22:30:27.961Z,4.70
2023-02-20T22:33:15.848Z,6.30
2023-02-20T22:36:03.703Z,3.50
2023-02-20T22:38:52.025Z,5.80
2023-02-20T22:41:39.974Z,3.90
2023-02-20T22:44:27.078Z,4.50
2023-02-20T22:47:14.762Z,4.00
